PST,Max TemperatureF,Mean TemperatureF,Min TemperatureF,Max Dew PointF,MeanDew PointF,Min DewpointF,Max Humidity, Mean Humidity, Min Humidity, Max Sea Level PressureIn, Mean Sea Level PressureIn, Min Sea Level PressureIn, Max VisibilityMiles, Mean VisibilityMiles, Min VisibilityMiles, Max Wind SpeedMPH, Mean Wind SpeedMPH, Max Gust SpeedMPH,PrecipitationIn, CloudCover, Events, WindDirDegrees
2013-1-1,39,31,23,28,25,23,100,89,65,30.38,30.31,30.26,10,8,0,5,0,,0.00,,,338
2013-1-2,39,31,23,32,25,19,100,91,65,30.31,30.24,30.17,10,5,0,5,1,,0.00,,,9
2013-1-3,41,32,23,32,27,23,100,90,70,30.31,30.24,30.19,10,6,0,5,1,,0.00,,,18
2013-1-4,42,34,26,32,28,25,100,91,57,30.34,30.27,30.20,10,5,0,4,0,,0.00,,,353
2013-1-5,35,30,26,34,30,27,100,95,87,30.23,30.18,30.12,10,4,0,6,0,,0.17,,,218
2013-1-6,37,34,32,36,32,32,100,93,81,30.24,30.17,30.10,10,5,0,5,0,,0.00,,,217
2013-1-7,44,38,33,39,34,32,100,91,76,30.29,30.26,30.22,10,6,1,5,0,,0.00,,,353
2013-1-8,39,36,32,37,35,32,100,95,87,30.33,30.25,30.16,10,4,0,6,0,,0.00,,,13
2013-1-9,39,36,32,37,31,25,100,86,70,30.17,30.00,29.90,10,7,0,16,3,24,0.00,,,217
2013-1-10,39,32,24,28,24,21,93,73,52,30.10,30.04,29.96,10,10,2,14,6,21,0.00,,,231
2013-1-11,44,34,24,27,24,19,93,68,46,30.17,30.11,30.06,10,10,7,14,6,21,0.00,,,222
2013-1-12,39,30,21,25,22,18,93,79,45,30.22,30.17,30.10,10,10,7,5,0,,0.00,,,130
2013-1-13,39,27,15,23,18,14,100,80,39,30.31,30.23,30.19,10,10,5,6,0,,0.00,,,210
2013-1-14,44,30,15,25,17,7,93,72,24,30.45,30.38,30.31,10,10,5,4,1,,0.00,,,290
2013-1-15,50,34,19,30,23,18,100,77,37,30.54,30.49,30.42,10,9,4,4,0,,0.00,,,22
2013-1-16,53,36,19,32,25,18,100,80,35,30.56,30.46,30.37,10,8,5,4,0,,0.00,,,355
2013-1-17,55,37,19,32,25,18,100,79,33,30.41,30.33,30.23,10,9,4,4,0,,0.00,,,24
2013-1-18,53,36,19,32,25,18,100,80,35,30.34,30.28,30.22,10,9,0,5,0,,0.00,,,236
2013-1-19,53,36,19,32,25,18,100,81,35,30.37,30.30,30.24,10,9,0,4,0,,0.00,,,215
2013-1-20,53,36,19,30,24,18,100,80,35,30.35,30.29,30.20,10,8,0,4,1,,0.00,,,10
2013-1-21,55,37,19,30,24,18,100,79,30,30.28,30.22,30.16,10,8,0,6,0,,0.00,,,12
2013-1-22,46,34,23,32,27,19,100,81,50,30.21,30.12,30.04,10,9,4,5,0,,0.00,,,7
2013-1-23,41,36,30,39,35,28,100,95,87,30.15,30.06,29.98,10,4,0,5,1,,0.72,,,166
2013-1-24,46,42,37,43,38,36,100,92,81,30.25,30.19,30.15,10,5,0,4,0,,0.07,,,358
2013-1-25,46,42,37,45,40,37,100,94,81,30.23,30.14,30.03,10,4,0,4,0,,0.02,,,10
2013-1-26,46,37,28,39,33,27,100,80,53,30.04,29.98,29.94,10,8,1,17,4,24,0.02,,,211
2013-1-27,44,34,23,32,27,21,100,77,49,30.15,30.10,30.04,10,10,7,13,2,21,0.00,,,234
2013-1-28,46,38,30,32,31,28,100,77,57,30.26,30.18,30.11,10,10,3,14,4,24,0.00,,,208
2013-1-29,55,42,30,36,31,28,100,71,41,30.42,30.33,30.25,10,9,3,17,6,24,0.00,,,251
2013-1-30,50,39,28,37,32,27,100,89,58,30.48,30.41,30.34,10,7,0,5,1,,0.00,,,326
2013-1-31,53,40,28,36,31,27,100,86,47,30.38,30.31,30.22,10,5,0,5,0,,0.00,,,19